Bettles Airport
PABT : now visible

Airfield :











YOU CAN JOIN US ON...

 
LOGIN :

Register | Disclaimer

   EN    FR    IT 

 









Legend :    VFR   Marginal VFR   IFR   Intensive IFR   Very Intensive IFR
Visi :
Ceiling :
>= 8 km
>= 3000ft
5 to 8 km
1000 to 3000 ft
1500m to 5 km
500 to 1000 ft
800 to 1500m
200 to 500 ft
< 800m
< 200 ft
Symbols :   Thunderstorms  Fog  Heavy snow  Heavy precipitations  Wind > 20 kt






- Airport Elevation : 647 ft
- IATA code : BTT


PABT - Bettles

CURRENT METAR :
  • 191353Z 15004KT 2SM -SN BR OVC007 01/00 A2957 RMK AO2 SLP027 P0001 T00060000

EXPIRED METARs :
  • 191342Z 16004KT 2SM -SN BR OVC008 01/M01 A2958 RMK AO2 P0001 T00061006
  • 191253Z 15004KT 5SM -SN BR OVC007 01/M01 A2959 RMK AO2 SLP034 SNB44 P0000 T00061006
  • 191236Z 14004KT 5SM BR SCT005 OVC011 01/M01 A2960 RMK AO2 T00061006
  • 191221Z 15004KT 5SM BR OVC012 01/M01 A2960 RMK AO2 T00061006
  • 191153Z 14005KT 6SM BR FEW010 BKN015 OVC020 01/M01 A2961 RMK AO2 SLP037 60000 T00061006 10022 20006 58003

TAF PABT
Valid from the 19 at 12:00 until the 20 at 12:00 UTC


191133Z 1912/2012 15004KT P6SM BKN015 BKN029
FM191500 30006KT 4SM -SNRA SCT010 OVC025
PAZA FIR / North America



MET'MAP, your aeronautical weather chart ! - Copyright ORBIFLY December 2007 - Disclaimer

ORBIFLY MET'MAP TEAM :

Programming & Development : Alexandra Zaïnal
Concept & original design : Baudouin d'Aumeries
Assistance for programming : Marc-Olivier Méhu
Technical & hardware support : Manuel Goepfert

Contact : metmap@orbifly.com




SOURCES & CREDITS :

   NOAA       Earth
Advisory